Time;durP1;ratioP1;P1;durP2;ratioP2;P2;SDS_P1;SDS_P2;PMS_P1;PMS_P2;Temp;Humidity;BMP_temperature;BMP_pressure;BME280_temperature;BME280_humidity;BME280_pressure;Samples;Min_cycle;Max_cycle;Signal;HPM_P1;HPM_P2
2022/09/22 00:04:58;;;;;;;12.70;7.07;;;;;;;5.39;93.21;97930.69;10297960;28;20112;-63
2022/09/22 00:09:57;;;;;;;10.38;6.75;;;;;;;5.29;93.07;97915.03;10297951;28;20061;-62
2022/09/22 00:14:57;;;;;;;9.57;7.03;;;;;;;5.39;93.03;97923.84;10297666;28;20124;-62
2022/09/22 00:19:56;;;;;;;12.43;7.45;;;;;;;5.28;92.71;97910.75;10297431;28;20108;-63
2022/09/22 00:24:55;;;;;;;12.05;7.78;;;;;;;5.38;92.80;97916.09;10297482;28;20078;-62
2022/09/22 00:29:54;;;;;;;;;;;;;;;5.38;92.79;97908.38;10297276;28;20069;-63
2022/09/22 00:34:53;;;;;;;11.38;6.97;;;;;;;5.38;92.30;97918.66;10296077;28;19944;-62
2022/09/22 00:39:52;;;;;;;12.45;7.65;;;;;;;5.38;92.51;97916.09;10296648;28;20056;-63
2022/09/22 00:44:51;;;;;;;12.38;7.55;;;;;;;5.28;92.51;97891.88;10295914;28;20069;-62
2022/09/22 00:50:05;;;;;;;11.90;7.57;;;;;;;5.34;92.30;97902.28;10296451;28;20061;-63
2022/09/22 00:55:11;;;;;;;13.20;8.00;;;;;;;5.30;92.42;97903.94;10296048;28;20080;-63
2022/09/22 01:00:11;;;;;;;15.00;8.60;;;;;;;5.27;92.06;97902.97;10295792;28;20491;-62
2022/09/22 01:05:10;;;;;;;14.95;8.75;;;;;;;5.17;92.25;97883.03;10295998;28;20089;-63
2022/09/22 01:10:10;;;;;;;13.20;8.05;;;;;;;5.13;92.40;97887.22;10295610;28;20065;-63
2022/09/22 01:15:11;;;;;;;;;;;;;;;5.21;92.42;97905.44;10295836;28;20065;-63
2022/09/22 01:20:23;;;;;;;16.95;9.60;;;;;;;5.19;92.55;97907.09;10295069;28;19960;-62
2022/09/22 01:25:43;;;;;;;18.13;10.02;;;;;;;5.16;92.45;97900.19;10293841;28;20086;-62
2022/09/22 01:31:10;;;;;;;16.15;9.75;;;;;;;5.11;92.29;97900.06;10294735;28;20136;-62
2022/09/22 01:36:27;;;;;;;13.38;9.02;;;;;;;5.06;92.11;97901.69;10294788;28;20065;-63
2022/09/22 01:41:42;;;;;;;13.45;8.85;;;;;;;5.00;92.37;97901.53;10294188;28;20076;-62
2022/09/22 01:47:00;;;;;;;20.50;10.35;;;;;;;4.95;92.29;97899.66;10294591;28;20112;-62
2022/09/22 01:52:04;;;;;;;19.23;10.27;;;;;;;4.74;92.70;97893.16;10293877;28;20080;-62
2022/09/22 01:57:30;;;;;;;16.88;10.20;;;;;;;4.59;93.44;97901.34;10292819;28;20377;-62
2022/09/22 02:02:39;;;;;;;18.13;9.98;;;;;;;4.58;92.87;97891.91;10293680;28;20069;-62
2022/09/22 02:07:43;;;;;;;17.73;9.60;;;;;;;4.50;92.75;97876.31;10293231;28;20552;-62
2022/09/22 02:12:42;;;;;;;18.10;10.48;;;;;;;4.48;92.85;97871.97;10293193;28;20065;-62
2022/09/22 02:17:41;;;;;;;18.02;9.88;;;;;;;4.54;92.61;97897.81;10308160;28;20069;-62
2022/09/22 02:22:40;;;;;;;21.63;11.40;;;;;;;4.52;92.62;97890.88;10292909;28;20069;-62
2022/09/22 02:27:41;;;;;;;19.02;11.07;;;;;;;4.38;92.54;97872.56;10293066;28;20049;-62
2022/09/22 02:32:47;;;;;;;18.83;10.73;;;;;;;4.52;92.65;97896.03;10292577;28;20493;-63
2022/09/22 02:38:04;;;;;;;18.38;11.40;;;;;;;4.49;92.20;97902.81;10292538;28;20061;-62
2022/09/22 02:43:16;;;;;;;18.60;10.10;;;;;;;3.99;92.86;97879.28;10290518;28;20080;-63
2022/09/22 02:48:29;;;;;;;15.98;8.60;;;;;;;3.97;92.87;97901.47;10290461;28;20069;-63
2022/09/22 02:53:28;;;;;;;13.82;8.77;;;;;;;3.82;93.45;97896.78;10291980;28;20072;-63
2022/09/22 02:58:27;;;;;;;14.23;7.65;;;;;;;3.64;93.10;97870.59;10291234;28;20125;-63
2022/09/22 03:03:26;;;;;;;13.60;6.93;;;;;;;3.64;93.34;97871.47;10291690;28;20092;-63
2022/09/22 03:08:25;;;;;;;11.05;6.32;;;;;;;3.65;93.32;97905.69;10291306;28;20046;-63
2022/09/22 03:13:24;;;;;;;14.68;7.72;;;;;;;3.55;93.52;97906.28;10291764;28;20034;-62
2022/09/22 03:18:23;;;;;;;13.85;6.90;;;;;;;3.55;92.94;97912.25;10291432;28;20034;-63
2022/09/22 03:23:22;;;;;;;11.40;6.50;;;;;;;3.25;93.33;97906.22;10291553;28;20057;-63
2022/09/22 03:28:21;;;;;;;11.07;6.38;;;;;;;3.11;93.13;97893.00;10291323;28;20117;-63
2022/09/22 03:33:20;;;;;;;9.60;6.13;;;;;;;3.04;93.17;97896.19;10290954;28;20033;-63
2022/09/22 03:38:19;;;;;;;12.23;6.70;;;;;;;3.12;92.87;97923.81;10306258;28;20132;-63
2022/09/22 03:43:19;;;;;;;10.88;6.95;;;;;;;2.72;93.17;97861.06;10291713;28;20141;-63
2022/09/22 03:48:18;;;;;;;11.30;7.00;;;;;;;3.01;93.15;97909.78;10290642;28;20073;-62
2022/09/22 03:53:17;;;;;;;;;;;;;;;3.06;93.41;97925.31;10291305;28;20497;-62
2022/09/22 03:58:19;;;;;;;12.05;7.32;;;;;;;2.96;93.91;97917.34;10291113;28;19971;-63
2022/09/22 04:03:18;;;;;;;11.77;7.00;;;;;;;3.03;93.89;97918.41;10290181;28;20484;-63
2022/09/22 04:08:17;;;;;;;19.02;9.30;;;;;;;3.10;94.19;97927.16;10290068;28;20420;-63
2022/09/22 04:13:16;;;;;;;24.92;11.65;;;;;;;3.19;94.29;97930.88;10289376;28;20080;-63
2022/09/22 04:18:15;;;;;;;23.60;11.60;;;;;;;3.18;94.35;97926.53;10290129;28;20100;-63
2022/09/22 04:23:16;;;;;;;30.08;15.25;;;;;;;3.20;94.07;97929.16;10294856;28;20390;-63
2022/09/22 04:28:15;;;;;;;36.70;16.60;;;;;;;3.16;94.13;97923.06;10297102;28;20073;-62
2022/09/22 04:33:14;;;;;;;30.85;16.13;;;;;;;3.17;94.02;97918.81;10297066;28;20022;-63
2022/09/22 04:38:13;;;;;;;29.75;16.20;;;;;;;3.32;94.55;97937.22;10294880;28;20053;-63
2022/09/22 04:43:12;;;;;;;29.90;14.60;;;;;;;3.38;94.56;97940.00;10296147;28;20069;-62
2022/09/22 04:48:11;;;;;;;25.90;12.77;;;;;;;3.20;95.01;97921.47;10295992;28;20048;-62
2022/09/22 04:53:11;;;;;;;22.77;13.25;;;;;;;3.12;94.59;97905.88;10293490;28;20577;-62
2022/09/22 04:58:10;;;;;;;28.15;15.93;;;;;;;3.49;94.80;97948.00;10293319;28;20069;-63
2022/09/22 05:03:11;;;;;;;40.58;19.05;;;;;;;3.66;94.69;97945.94;10296298;28;20066;-63
2022/09/22 05:08:10;;;;;;;34.50;19.73;;;;;;;3.70;94.05;97922.09;10296449;28;20532;-63
2022/09/22 05:13:10;;;;;;;34.13;19.48;;;;;;;3.93;93.67;97942.41;10312072;28;20515;-63
2022/09/22 05:18:09;;;;;;;26.05;15.45;;;;;;;3.95;93.38;97951.03;10295918;28;20124;-63
2022/09/22 05:23:08;;;;;;;22.05;13.15;;;;;;;3.72;93.36;97940.97;10291405;28;20030;-63
2022/09/22 05:28:07;;;;;;;26.92;16.30;;;;;;;3.79;93.42;97932.63;10289145;28;20034;-63
2022/09/22 05:33:06;;;;;;;33.05;18.00;;;;;;;4.14;93.83;97953.28;10255429;28;20404;-63
2022/09/22 05:38:05;;;;;;;37.08;19.17;;;;;;;4.16;93.83;97900.25;10254901;28;20026;-63
2022/09/22 05:43:04;;;;;;;52.85;25.67;;;;;;;4.68;93.81;97929.84;10254818;28;20061;-63
2022/09/22 05:48:03;;;;;;;34.20;20.70;;;;;;;5.01;93.51;97948.69;10255219;28;20046;-63
2022/09/22 05:53:07;;;;;;;45.63;19.70;;;;;;;4.93;93.27;97940.75;10256038;28;20564;-63
2022/09/22 05:58:12;;;;;;;36.92;20.73;;;;;;;5.05;93.10;97925.66;10255544;28;20524;-63
2022/09/22 06:03:11;;;;;;;34.50;20.88;;;;;;;5.43;92.17;97959.09;10252936;28;20074;-63
2022/09/22 06:08:10;;;;;;;34.08;20.20;;;;;;;5.52;92.31;97949.00;10252735;28;20089;-63
2022/09/22 06:13:10;;;;;;;27.05;18.20;;;;;;;5.73;92.32;97948.59;10266283;28;20508;-63
2022/09/22 06:18:10;;;;;;;31.55;19.70;;;;;;;5.82;91.22;97937.63;10292981;28;20493;-63
2022/09/22 06:23:14;;;;;;;66.97;46.53;;;;;;;6.02;91.35;97940.59;10292784;28;20161;-63
2022/09/22 06:28:15;;;;;;;36.00;20.98;;;;;;;6.32;90.99;97950.63;10292514;28;20460;-63
2022/09/22 06:33:13;;;;;;;34.72;20.77;;;;;;;6.57;90.86;97956.25;10292842;28;20057;-63
2022/09/22 06:38:14;;;;;;;38.45;25.58;;;;;;;6.58;89.55;97930.47;10292244;28;20037;-63
2022/09/22 06:43:21;;;;;;;34.40;23.10;;;;;;;7.00;90.00;97946.66;10306658;28;20073;-63
2022/09/22 06:48:22;;;;;;;28.42;19.95;;;;;;;7.25;89.17;97916.94;10290397;28;20657;-63
2022/09/22 06:53:23;;;;;;;33.55;22.15;;;;;;;7.61;86.54;97926.09;10292118;28;20061;-62
2022/09/22 06:58:22;;;;;;;32.08;19.58;;;;;;;7.54;86.79;97947.50;10305863;28;20069;-63
2022/09/22 07:03:24;;;;;;;28.02;19.13;;;;;;;7.32;86.48;97912.75;10287559;28;20070;-63
2022/09/22 07:08:24;;;;;;;33.47;21.42;;;;;;;7.54;86.41;97944.94;10289034;28;20077;-63
2022/09/22 07:13:24;;;;;;;32.72;21.10;;;;;;;7.57;86.33;97930.34;10289397;28;20489;-63
2022/09/22 07:18:23;;;;;;;28.52;19.83;;;;;;;7.69;86.20;97928.78;10289045;28;20069;-63
2022/09/22 07:23:22;;;;;;;24.52;17.75;;;;;;;7.77;85.82;97946.09;10287316;28;20196;-63
2022/09/22 07:28:24;;;;;;;23.73;17.20;;;;;;;7.74;85.70;97921.97;10288969;28;20280;-63
2022/09/22 07:33:23;;;;;;;24.65;17.10;;;;;;;7.88;85.93;97930.75;10287896;28;20141;-63
2022/09/22 07:38:28;;;;;;;25.55;17.02;;;;;;;8.06;85.68;97943.00;10289006;28;20084;-62
2022/09/22 07:43:27;;;;;;;28.00;18.48;;;;;;;8.26;84.96;97944.13;10291003;28;20081;-64
2022/09/22 07:48:37;;;;;;;29.35;17.65;;;;;;;8.48;84.22;97934.88;10290912;28;20041;-63
2022/09/22 07:53:38;;;;;;;26.67;17.52;;;;;;;8.82;83.90;97930.00;10290915;28;20493;-63
2022/09/22 07:58:40;;;;;;;22.48;15.13;;;;;;;9.07;83.20;97936.28;10296790;28;20068;-63
2022/09/22 08:03:39;;;;;;;23.77;14.48;;;;;;;9.33;82.09;97927.84;10297701;28;20076;-63
2022/09/22 08:08:52;;;;;;;;;;;;;;;9.56;80.87;97925.41;10297827;28;20550;-63
2022/09/22 08:13:55;;;;;;;14.40;10.32;;;;;;;9.90;80.28;97912.63;10315050;28;19909;-63
2022/09/22 08:18:56;;;;;;;13.40;9.38;;;;;;;10.16;79.76;97917.88;10300917;28;20076;-63
2022/09/22 08:23:55;;;;;;;10.52;7.35;;;;;;;10.51;78.21;97904.16;10300587;28;20069;-63
2022/09/22 08:28:55;;;;;;;5.03;2.80;;;;;;;10.84;75.19;97908.50;10299455;28;20045;-63
2022/09/22 08:33:55;;;;;;;3.00;2.30;;;;;;;10.67;68.33;97837.56;10300446;28;20066;-63
2022/09/22 08:38:54;;;;;;;4.15;2.70;;;;;;;11.21;68.30;97870.41;10300137;28;20104;-62
2022/09/22 08:43:55;;;;;;;5.38;4.80;;;;;;;11.70;65.23;97884.16;10299919;28;20061;-63
2022/09/22 08:54:30;;;;;;;2.13;1.92;;;;;;;12.20;62.94;97841.44;10299941;28;20030;-63
2022/09/22 08:59:34;;;;;;;3.60;2.53;;;;;;;12.69;60.10;97873.22;10297451;28;20100;-63
2022/09/22 09:04:36;;;;;;;4.03;2.28;;;;;;;12.89;57.39;97873.09;10297077;28;20073;-64
2022/09/22 09:10:20;;;;;;;4.32;3.33;;;;;;;13.12;55.48;97867.69;10296143;28;20454;-63
2022/09/22 09:15:41;;;;;;;2.00;1.85;;;;;;;13.67;54.87;97855.81;10296504;28;20080;-63
2022/09/22 09:20:51;;;;;;;2.50;2.30;;;;;;;14.04;54.18;97837.09;10297266;28;20072;-63
2022/09/22 09:25:54;;;;;;;2.60;1.90;;;;;;;14.14;52.63;97850.88;10297019;28;20057;-63
2022/09/22 09:31:04;;;;;;;2.47;1.90;;;;;;;14.47;52.14;97846.91;10296041;28;20788;-63
2022/09/22 09:36:08;;;;;;;3.95;2.20;;;;;;;14.52;51.24;97825.97;10294848;28;20061;-63
2022/09/22 09:41:16;;;;;;;2.47;1.80;;;;;;;14.72;49.54;97850.06;10295715;28;20069;-64
2022/09/22 09:46:40;;;;;;;2.28;1.90;;;;;;;15.08;50.09;97849.47;10294998;28;20494;-64
2022/09/22 09:51:46;;;;;;;2.40;2.20;;;;;;;15.24;48.81;97838.69;10296518;28;20474;-64
2022/09/22 09:57:03;;;;;;;3.35;1.88;;;;;;;15.57;48.02;97843.31;10295807;28;20094;-64
2022/09/22 10:02:03;;;;;;;10.00;2.42;;;;;;;15.63;46.94;97819.66;10295684;28;20080;-64
2022/09/22 10:07:14;;;;;;;2.10;1.80;;;;;;;15.71;45.57;97835.19;10295150;28;20085;-64
2022/09/22 10:12:28;;;;;;;1.80;1.70;;;;;;;15.60;46.03;97806.63;10293680;28;20073;-64
2022/09/22 10:17:39;;;;;;;3.72;1.80;;;;;;;16.04;44.83;97831.94;10292991;28;20456;-64
2022/09/22 10:22:38;;;;;;;2.47;1.83;;;;;;;16.14;45.05;97819.50;10293320;28;20073;-64
2022/09/22 10:27:36;;;;;;;;;;;;;;;16.00;45.08;97825.03;10294662;28;20030;-64
2022/09/22 10:32:36;;;;;;;2.03;1.70;;;;;;;16.06;44.91;97818.78;10294088;28;19971;-64
2022/09/22 10:37:36;;;;;;;2.15;1.75;;;;;;;15.85;45.25;97810.50;10290352;28;20096;-64
2022/09/22 10:42:42;;;;;;;2.20;1.80;;;;;;;15.35;45.74;97746.13;10291262;28;20068;-64
2022/09/22 10:48:02;;;;;;;2.08;1.88;;;;;;;15.87;46.01;97813.94;10288874;28;20488;-63
2022/09/22 10:53:14;;;;;;;;;;;;;;;16.02;45.74;97812.78;10289772;28;20111;-63
2022/09/22 10:58:36;;;;;;;3.30;1.95;;;;;;;16.15;45.04;97802.03;10305421;28;20032;-64
2022/09/22 11:04:12;;;;;;;1.50;1.40;;;;;;;16.65;44.79;97789.47;10291376;28;20073;-63
2022/09/22 11:14:52;;;;;;;2.78;1.90;;;;;;;17.66;40.64;97784.19;10291484;28;20066;-63
2022/09/22 11:20:08;;;;;;;1.52;1.42;;;;;;;17.42;40.04;97750.75;10290686;28;20082;-64
2022/09/22 11:25:13;;;;;;;2.70;1.90;;;;;;;17.87;40.77;97766.09;10291213;28;20065;-64
2022/09/22 11:30:21;;;;;;;2.47;1.80;;;;;;;17.45;37.23;97769.03;10292591;28;20525;-63
2022/09/22 11:35:26;;;;;;;2.05;1.75;;;;;;;17.20;38.95;97768.88;10299104;28;20057;-63
2022/09/22 11:40:39;;;;;;;3.22;1.60;;;;;;;16.44;39.19;97765.53;10298603;28;20065;-63
2022/09/22 11:45:57;;;;;;;3.33;1.33;;;;;;;15.41;44.41;97788.72;10298624;28;20069;-63
2022/09/22 11:51:06;;;;;;;3.75;1.38;;;;;;;15.48;43.98;97784.19;10298226;28;20061;-63
2022/09/22 11:56:27;;;;;;;2.22;1.20;;;;;;;15.71;44.06;97785.50;10299068;28;20068;-63
2022/09/22 12:01:33;;;;;;;2.25;1.70;;;;;;;15.60;42.75;97752.59;10297938;28;20527;-63
2022/09/22 12:06:40;;;;;;;1.88;1.52;;;;;;;15.89;43.42;97798.22;10297887;28;20085;-63
2022/09/22 12:11:39;;;;;;;2.03;1.33;;;;;;;15.42;43.92;97794.81;10313044;28;20123;-63
2022/09/22 12:16:50;;;;;;;3.47;1.40;;;;;;;15.34;45.21;97796.69;10312690;28;20092;-63
2022/09/22 12:21:59;;;;;;;2.38;1.42;;;;;;;15.08;44.68;97769.28;10297182;28;20069;-63
2022/09/22 12:27:10;;;;;;;1.35;1.00;;;;;;;15.03;45.72;97792.03;10297026;28;20065;-63
2022/09/22 12:32:23;;;;;;;1.17;1.00;;;;;;;15.43;45.87;97778.22;10297097;28;20066;-63
2022/09/22 12:37:30;;;;;;;1.55;1.38;;;;;;;15.85;44.96;97775.63;10296801;28;20065;-63
2022/09/22 12:42:35;;;;;;;1.50;1.10;;;;;;;16.26;45.11;97764.22;10294586;28;20070;-63
2022/09/22 12:47:40;;;;;;;1.20;1.02;;;;;;;16.65;44.59;97758.91;10294803;28;20066;-62
2022/09/22 12:52:39;;;;;;;1.40;1.20;;;;;;;16.96;44.25;97757.25;10296721;28;20046;-62
2022/09/22 12:57:49;;;;;;;2.33;1.20;;;;;;;17.40;43.23;97750.78;10296927;28;20030;-62
2022/09/22 13:02:49;;;;;;;1.30;1.20;;;;;;;17.64;41.86;97738.75;10299161;28;20524;-62
2022/09/22 13:07:48;;;;;;;1.50;1.20;;;;;;;17.79;41.91;97750.56;10298712;28;20061;-62
2022/09/22 13:18:01;;;;;;;1.45;1.20;;;;;;;17.58;41.34;97732.81;10298964;28;20038;-63
2022/09/22 13:23:11;;;;;;;4.22;1.30;;;;;;;17.74;40.10;97724.44;10298369;28;20061;-63
2022/09/22 13:28:16;;;;;;;1.77;1.40;;;;;;;17.39;38.78;97733.34;10298273;28;20061;-63
2022/09/22 13:33:24;;;;;;;1.80;1.15;;;;;;;17.30;38.83;97725.75;10297950;28;20426;-63
2022/09/22 13:38:23;;;;;;;2.22;1.48;;;;;;;17.04;39.67;97724.69;10297990;28;20489;-63
2022/09/22 13:43:28;;;;;;;3.13;2.25;;;;;;;16.89;39.77;97731.22;10298176;28;20512;-63
2022/09/22 13:48:32;;;;;;;1.33;1.23;;;;;;;16.81;39.69;97727.94;10297714;28;20065;-63
2022/09/22 13:53:31;;;;;;;1.20;1.20;;;;;;;16.81;39.03;97725.31;10312668;28;20030;-63
2022/09/22 13:58:38;;;;;;;1.63;1.20;;;;;;;16.54;39.21;97699.84;10295397;28;20502;-63
2022/09/22 14:03:37;;;;;;;1.40;1.27;;;;;;;16.64;38.92;97711.78;10292237;28;20065;-63
2022/09/22 14:08:36;;;;;;;;;;;;;;;16.80;39.24;97728.81;10293282;28;20046;-63
2022/09/22 14:13:59;;;;;;;1.40;1.30;;;;;;;16.71;39.75;97715.97;10291893;28;19971;-63
2022/09/22 14:19:13;;;;;;;3.88;2.80;;;;;;;16.44;40.87;97721.03;10293477;28;20058;-63
2022/09/22 14:24:13;;;;;;;3.22;2.25;;;;;;;16.15;41.28;97710.38;10292822;28;20061;-63
2022/09/22 14:29:21;;;;;;;4.93;1.80;;;;;;;16.20;41.96;97724.22;10293481;28;20061;-63
2022/09/22 14:34:32;;;;;;;1.80;1.40;;;;;;;16.13;40.39;97718.28;10292710;28;20516;-63
2022/09/22 14:39:32;;;;;;;1.92;1.70;;;;;;;16.07;40.32;97710.59;10292343;28;20072;-63
2022/09/22 14:44:38;;;;;;;2.95;1.75;;;;;;;16.02;41.39;97710.69;10291918;28;20520;-63
2022/09/22 14:49:43;;;;;;;3.40;1.90;;;;;;;16.07;40.89;97721.06;10291809;28;20072;-63
2022/09/22 14:54:43;;;;;;;4.95;2.10;;;;;;;15.92;40.71;97724.88;10291805;28;20061;-63
2022/09/22 15:05:08;;;;;;;3.22;2.33;;;;;;;15.54;41.97;97720.47;10290853;28;20085;-63
2022/09/22 15:10:20;;;;;;;4.53;1.80;;;;;;;15.40;42.19;97728.59;10291580;28;20543;-63
2022/09/22 15:15:22;;;;;;;2.15;1.65;;;;;;;15.29;43.12;97735.78;10291359;28;20080;-61
2022/09/22 15:20:31;;;;;;;3.70;2.42;;;;;;;15.24;43.97;97734.13;10291305;28;20069;-61
2022/09/22 15:25:30;;;;;;;;;;;;;;;15.19;45.62;97740.34;10290372;28;20083;-61
2022/09/22 15:30:31;;;;;;;13.55;4.38;;;;;;;15.13;46.49;97738.72;10291162;28;20355;-61
2022/09/22 15:35:31;;;;;;;13.10;5.30;;;;;;;15.06;47.68;97744.97;10290588;28;20057;-61
2022/09/22 15:40:30;;;;;;;12.98;5.70;;;;;;;15.04;49.15;97742.38;10289194;28;20065;-61
2022/09/22 15:45:29;;;;;;;;;;;;;;;14.85;49.83;97753.19;10286832;28;20416;-62
2022/09/22 15:50:29;;;;;;;13.73;8.95;;;;;;;14.55;50.13;97742.38;10288641;28;19964;-62
2022/09/22 15:55:28;;;;;;;24.65;11.65;;;;;;;14.36;50.82;97737.44;10289474;28;20061;-63
2022/09/22 16:00:27;;;;;;;;;;;;;;;14.29;51.49;97777.59;10291186;28;20100;-63
2022/09/22 16:05:30;;;;;;;18.90;9.00;;;;;;;14.06;52.24;97783.16;10291538;28;19965;-63
2022/09/22 16:10:29;;;;;;;12.02;5.43;;;;;;;13.64;53.00;97746.34;10291706;28;20065;-61
2022/09/22 16:15:29;;;;;;;8.55;4.53;;;;;;;13.60;52.87;97786.38;10290885;28;20050;-61
2022/09/22 16:20:28;;;;;;;6.05;3.38;;;;;;;13.41;53.50;97772.69;10296619;28;20505;-62
2022/09/22 16:25:29;;;;;;;;;;;;;;;13.26;53.49;97776.34;10269507;28;20070;-61
2022/09/22 16:30:29;;;;;;;6.57;3.90;;;;;;;13.10;53.89;97780.84;10263634;28;19968;-61
2022/09/22 16:35:28;;;;;;;6.35;3.85;;;;;;;12.83;54.11;97765.50;10277945;28;20065;-62
2022/09/22 16:40:28;;;;;;;;;;;;;;;12.90;54.51;97798.41;10262014;28;20066;-62
2022/09/22 16:50:45;;;;;;;7.15;4.93;;;;;;;12.57;56.00;97783.97;10295739;28;20069;-63
2022/09/22 16:55:47;;;;;;;12.73;7.93;;;;;;;12.50;56.12;97803.97;10297791;28;20072;-63
2022/09/22 17:00:46;;;;;;;21.90;14.88;;;;;;;12.32;57.03;97798.91;10292911;28;20065;-63
2022/09/22 17:05:45;;;;;;;24.98;15.57;;;;;;;11.90;57.93;97770.56;10293733;28;20130;-63
2022/09/22 17:10:45;;;;;;;34.15;19.42;;;;;;;11.97;58.85;97811.25;10294107;28;20588;-63
2022/09/22 17:15:43;;;;;;;25.25;14.57;;;;;;;11.82;59.36;97809.56;10292651;28;20057;-63
2022/09/22 17:20:42;;;;;;;23.33;13.07;;;;;;;11.83;59.01;97821.72;10292103;28;20109;-61
2022/09/22 17:25:45;;;;;;;21.90;12.18;;;;;;;11.89;60.16;97842.47;10293177;28;20038;-62
2022/09/22 17:30:56;;;;;;;20.92;12.98;;;;;;;11.64;61.68;97856.44;10289369;28;20493;-61
2022/09/22 17:35:59;;;;;;;15.25;10.55;;;;;;;11.51;62.60;97855.63;10293497;28;20065;-61
2022/09/22 17:41:08;;;;;;;16.00;9.82;;;;;;;11.50;62.80;97853.03;10291959;28;20061;-61
2022/09/22 17:46:11;;;;;;;13.00;9.73;;;;;;;11.46;63.58;97858.25;10288771;28;20113;-61
2022/09/22 17:56:50;;;;;;;14.53;8.47;;;;;;;11.14;64.64;97852.25;10292904;28;20455;-61
2022/09/22 18:01:49;;;;;;;23.85;15.65;;;;;;;11.07;65.06;97858.34;10290447;28;20288;-61
2022/09/22 18:06:48;;;;;;;25.65;16.85;;;;;;;11.03;66.12;97879.13;10291058;28;20085;-61
2022/09/22 18:11:47;;;;;;;;;;;;;;;10.82;68.20;97879.06;10292381;28;20268;-61
2022/09/22 18:16:46;;;;;;;35.00;24.08;;;;;;;10.58;68.45;97860.03;10291102;28;19996;-63
2022/09/22 18:21:45;;;;;;;22.98;15.15;;;;;;;10.61;68.02;97890.31;10290999;28;20069;-61
2022/09/22 18:26:45;;;;;;;19.27;12.07;;;;;;;10.52;67.79;97893.78;10290955;28;20029;-61
2022/09/22 18:31:44;;;;;;;25.88;17.80;;;;;;;10.37;68.13;97883.38;10289646;28;20084;-61
2022/09/22 18:36:44;;;;;;;25.42;19.23;;;;;;;10.30;68.49;97871.25;10304795;28;20131;-61
2022/09/22 18:41:43;;;;;;;19.55;12.38;;;;;;;10.41;68.84;97895.50;10304633;28;20104;-61
2022/09/22 18:46:44;;;;;;;19.15;10.48;;;;;;;10.34;68.72;97870.41;10290502;28;20488;-62
2022/09/22 18:51:49;;;;;;;12.77;7.13;;;;;;;10.34;69.44;97867.81;10290025;28;20054;-63
2022/09/22 18:56:49;;;;;;;11.15;5.80;;;;;;;10.50;69.36;97887.72;10290698;28;20073;-63
2022/09/22 19:01:48;;;;;;;7.82;5.70;;;;;;;10.55;68.73;97885.13;10292660;28;20073;-61
2022/09/22 19:12:09;;;;;;;7.60;5.47;;;;;;;10.62;68.43;97871.28;10294073;28;20030;-61
2022/09/22 19:17:10;;;;;;;8.60;6.30;;;;;;;10.36;70.35;97879.91;10292836;28;20522;-61
2022/09/22 19:22:10;;;;;;;9.48;6.78;;;;;;;10.25;70.23;97865.19;10292041;28;20127;-61
2022/09/22 19:27:10;;;;;;;12.38;7.03;;;;;;;10.27;71.41;97884.22;10293349;28;20061;-61
2022/09/22 19:32:09;;;;;;;24.30;9.63;;;;;;;10.23;71.94;97885.94;10291926;28;20068;-62
2022/09/22 19:37:08;;;;;;;11.60;8.18;;;;;;;10.24;72.31;97889.38;10292212;28;20065;-63
2022/09/22 19:42:07;;;;;;;15.60;8.98;;;;;;;10.18;72.83;97888.50;10292871;28;20045;-63
2022/09/22 19:47:06;;;;;;;15.32;11.95;;;;;;;10.09;73.36;97885.03;10293063;28;20069;-63
2022/09/22 19:52:05;;;;;;;20.55;15.02;;;;;;;9.56;73.11;97806.25;10297810;28;20439;-62
2022/09/22 19:57:04;;;;;;;24.02;17.15;;;;;;;9.91;73.66;97875.44;10298669;28;20072;-62
2022/09/22 20:02:03;;;;;;;31.27;22.60;;;;;;;9.97;73.89;97896.22;10297428;28;20485;-62
2022/09/22 20:07:02;;;;;;;37.28;27.27;;;;;;;9.90;73.86;97897.06;10311987;28;20085;-61
2022/09/22 20:12:01;;;;;;;36.90;27.15;;;;;;;9.81;73.79;97899.63;10297633;28;20088;-62
2022/09/22 20:17:05;;;;;;;24.80;18.17;;;;;;;9.63;74.82;97903.88;10296272;28;20536;-62
2022/09/22 20:22:26;;;;;;;17.00;9.07;;;;;;;9.11;77.99;97900.91;10297119;28;20066;-62
2022/09/22 20:27:31;;;;;;;12.25;7.90;;;;;;;9.06;77.92;97900.88;10312388;28;20062;-62
2022/09/22 20:32:31;;;;;;;11.75;7.70;;;;;;;9.00;78.08;97897.41;10295855;28;20053;-62
2022/09/22 20:37:30;;;;;;;11.10;7.47;;;;;;;9.01;78.17;97912.06;10311574;28;20537;-62
2022/09/22 20:42:29;;;;;;;10.93;6.25;;;;;;;8.93;78.72;97919.78;10294858;28;20062;-62
2022/09/22 20:47:28;;;;;;;12.07;7.43;;;;;;;8.75;79.00;97909.25;10296569;28;20029;-62
2022/09/22 20:52:27;;;;;;;12.68;7.93;;;;;;;8.65;79.04;97909.19;10295726;28;20322;-62
2022/09/22 20:57:31;;;;;;;11.65;8.38;;;;;;;8.69;79.88;97923.88;10296053;28;20073;-62
2022/09/22 21:02:32;;;;;;;10.68;8.18;;;;;;;8.59;79.82;97934.13;10310266;28;20096;-62
2022/09/22 21:07:31;;;;;;;12.27;8.35;;;;;;;8.32;80.04;97911.41;10292640;28;20085;-63
2022/09/22 21:12:30;;;;;;;19.25;12.10;;;;;;;8.29;80.43;97922.59;10295487;28;20081;-62
2022/09/22 21:17:31;;;;;;;21.17;12.85;;;;;;;8.34;81.41;97936.47;10307970;28;20167;-63
2022/09/22 21:22:30;;;;;;;19.73;12.77;;;;;;;8.32;82.45;97950.19;10294962;28;20080;-62
2022/09/22 21:27:29;;;;;;;18.58;12.27;;;;;;;8.22;82.15;97924.25;10292080;28;20335;-62
2022/09/22 21:32:28;;;;;;;15.05;10.63;;;;;;;8.35;82.29;97926.97;10292755;28;20080;-62
2022/09/22 21:37:27;;;;;;;15.82;10.05;;;;;;;8.41;82.01;97932.19;10294456;28;20026;-62
2022/09/22 21:42:26;;;;;;;13.55;8.32;;;;;;;8.35;81.77;97919.22;10294789;28;20030;-63
2022/09/22 21:47:25;;;;;;;11.95;8.45;;;;;;;8.35;81.60;97925.25;10293623;28;20065;-63
2022/09/22 21:52:24;;;;;;;14.50;9.35;;;;;;;8.22;81.32;97905.28;10293898;28;20033;-63
2022/09/22 21:57:23;;;;;;;15.20;10.00;;;;;;;8.27;81.62;97939.81;10290586;28;20343;-63
2022/09/22 22:02:22;;;;;;;12.95;9.90;;;;;;;8.15;81.94;97930.19;10292792;28;20100;-63
2022/09/22 22:07:21;;;;;;;13.82;9.15;;;;;;;8.09;82.13;97935.31;10308004;28;20406;-63
2022/09/22 22:12:21;;;;;;;16.20;11.65;;;;;;;7.88;82.40;97920.41;10293227;28;20038;-62
2022/09/22 22:17:20;;;;;;;13.13;8.90;;;;;;;7.74;83.34;97932.28;10291004;28;20065;-63
2022/09/22 22:22:19;;;;;;;13.68;9.20;;;;;;;7.71;83.39;97935.72;10292453;28;20209;-63
2022/09/22 22:27:18;;;;;;;15.95;11.25;;;;;;;7.59;83.56;97922.59;10292355;28;20121;-63
2022/09/22 22:32:17;;;;;;;19.35;12.32;;;;;;;7.65;83.74;97936.47;10292439;28;20468;-63
2022/09/22 22:37:16;;;;;;;19.65;12.63;;;;;;;7.62;83.81;97944.19;10292624;28;20378;-63
2022/09/22 22:42:15;;;;;;;16.98;10.90;;;;;;;7.39;84.56;97936.09;10306725;28;20073;-63
2022/09/22 22:47:15;;;;;;;17.02;11.50;;;;;;;7.26;84.54;97929.00;10292197;28;20109;-63
2022/09/22 22:52:14;;;;;;;18.48;12.60;;;;;;;7.10;85.67;97922.75;10291803;28;20053;-62
2022/09/22 22:57:13;;;;;;;21.80;13.02;;;;;;;6.91;85.69;97895.78;10291733;28;20026;-62
2022/09/22 23:02:12;;;;;;;16.30;11.57;;;;;;;7.05;85.53;97914.06;10291797;28;20113;-62
2022/09/22 23:07:11;;;;;;;17.50;11.50;;;;;;;7.00;85.54;97910.53;10291200;28;20132;-63
2022/09/22 23:12:11;;;;;;;17.55;10.35;;;;;;;6.91;86.01;97902.66;10290255;28;20105;-62
2022/09/22 23:17:10;;;;;;;14.82;10.13;;;;;;;6.86;85.65;97907.75;10291155;28;20061;-62
2022/09/22 23:22:09;;;;;;;15.95;10.80;;;;;;;6.82;85.75;97896.53;10290534;28;20421;-62
2022/09/22 23:27:07;;;;;;;18.48;11.13;;;;;;;6.54;85.72;97864.25;10295911;28;20371;-62
2022/09/22 23:32:07;;;;;;;15.98;10.88;;;;;;;6.71;86.01;97903.22;10299347;28;20034;-62
2022/09/22 23:37:06;;;;;;;15.98;9.25;;;;;;;6.28;87.77;97874.13;10314531;28;20068;-62
2022/09/22 23:42:05;;;;;;;14.25;9.35;;;;;;;6.47;87.27;97905.34;10299037;28;20065;-63
2022/09/22 23:47:04;;;;;;;14.45;9.43;;;;;;;6.41;87.14;97898.41;10298881;28;20069;-63
2022/09/22 23:52:03;;;;;;;16.65;10.02;;;;;;;6.38;87.27;97901.78;10298462;28;20042;-62
2022/09/22 23:57:02;;;;;;;16.48;10.48;;;;;;;6.36;87.54;97895.72;10299170;28;20018;-62
